Terminal Aerodrome Forecast
Issued by NWS Greer, SC

Home | Current Version | Previous Version | Text Only | Print | Product List | Glossary On
Versions: 1 2 3 4 5 6 7 8 9 10 11 12 13 14 15 16 17 18 19 20 21 22 23 24 25 26 27 28 29 30 31 32 33 34 35
000
FTUS42 KGSP 190539
TAFCLT
TAF
KCLT 190539Z 1906/2012 12005KT P6SM -RA OVC025
     FM190700 11005KT P6SM -RA OVC018
      TEMPO 1908/1910 4SM -SHRA OVC007
     FM191000 08005KT 5SM -DZ BR OVC006
     FM192200 10003KT P6SM BKN010
     FM200100 07003KT 6SM BR BKN008
     FM200900 12003KT 2SM BR BKN003=

USA.gov is the U.S. government's official web portal to all federal, state and local government web resources and services.